sensor_id;sensor_type;location;lat;lon;timestamp;P1;durP1;ratioP1;P2;durP2;ratioP2
16820;SDS011;8527;49.740;6.604;2023-07-20T00:00:50;13.13;;;4.10;;
16820;SDS011;8527;49.740;6.604;2023-07-20T00:05:48;9.60;;;3.88;;
16820;SDS011;8527;49.740;6.604;2023-07-20T00:10:47;9.15;;;4.13;;
16820;SDS011;8527;49.740;6.604;2023-07-20T00:15:48;11.30;;;3.90;;
16820;SDS011;8527;49.740;6.604;2023-07-20T00:20:48;9.63;;;3.45;;
16820;SDS011;8527;49.740;6.604;2023-07-20T00:25:47;15.40;;;3.95;;
16820;SDS011;8527;49.740;6.604;2023-07-20T00:30:48;6.97;;;3.50;;
16820;SDS011;8527;49.740;6.604;2023-07-20T00:35:49;8.65;;;3.50;;
16820;SDS011;8527;49.740;6.604;2023-07-20T00:40:50;10.15;;;4.00;;
16820;SDS011;8527;49.740;6.604;2023-07-20T00:45:52;7.00;;;3.85;;
16820;SDS011;8527;49.740;6.604;2023-07-20T00:50:50;8.52;;;3.40;;
16820;SDS011;8527;49.740;6.604;2023-07-20T00:55:50;9.25;;;4.20;;
16820;SDS011;8527;49.740;6.604;2023-07-20T01:00:48;8.40;;;3.85;;
16820;SDS011;8527;49.740;6.604;2023-07-20T01:05:51;10.77;;;3.53;;
16820;SDS011;8527;49.740;6.604;2023-07-20T01:11:01;12.98;;;5.30;;
16820;SDS011;8527;49.740;6.604;2023-07-20T01:16:10;9.63;;;4.00;;
16820;SDS011;8527;49.740;6.604;2023-07-20T01:21:09;13.43;;;4.15;;
16820;SDS011;8527;49.740;6.604;2023-07-20T01:26:13;9.00;;;3.67;;
16820;SDS011;8527;49.740;6.604;2023-07-20T01:31:41;7.97;;;3.53;;
16820;SDS011;8527;49.740;6.604;2023-07-20T01:36:45;12.70;;;4.22;;
16820;SDS011;8527;49.740;6.604;2023-07-20T01:41:52;12.15;;;4.22;;
16820;SDS011;8527;49.740;6.604;2023-07-20T01:46:53;10.20;;;4.40;;
16820;SDS011;8527;49.740;6.604;2023-07-20T01:51:51;14.57;;;4.25;;
16820;SDS011;8527;49.740;6.604;2023-07-20T01:56:58;8.93;;;4.15;;
16820;SDS011;8527;49.740;6.604;2023-07-20T02:02:00;17.25;;;4.38;;
16820;SDS011;8527;49.740;6.604;2023-07-20T02:06:58;10.82;;;3.92;;
16820;SDS011;8527;49.740;6.604;2023-07-20T02:11:56;8.93;;;4.10;;
16820;SDS011;8527;49.740;6.604;2023-07-20T02:17:03;13.07;;;4.63;;
16820;SDS011;8527;49.740;6.604;2023-07-20T02:22:02;14.65;;;4.00;;
16820;SDS011;8527;49.740;6.604;2023-07-20T02:27:01;10.40;;;3.63;;
16820;SDS011;8527;49.740;6.604;2023-07-20T02:32:05;10.32;;;3.85;;
16820;SDS011;8527;49.740;6.604;2023-07-20T02:37:07;11.43;;;3.75;;
16820;SDS011;8527;49.740;6.604;2023-07-20T02:42:08;9.88;;;4.47;;
16820;SDS011;8527;49.740;6.604;2023-07-20T02:47:14;8.38;;;3.80;;
16820;SDS011;8527;49.740;6.604;2023-07-20T02:52:15;7.55;;;3.60;;
16820;SDS011;8527;49.740;6.604;2023-07-20T02:57:14;10.30;;;4.07;;
16820;SDS011;8527;49.740;6.604;2023-07-20T03:02:18;10.80;;;4.15;;
16820;SDS011;8527;49.740;6.604;2023-07-20T03:07:19;11.50;;;3.95;;
16820;SDS011;8527;49.740;6.604;2023-07-20T03:12:17;8.85;;;3.72;;
16820;SDS011;8527;49.740;6.604;2023-07-20T03:17:18;11.90;;;3.75;;
16820;SDS011;8527;49.740;6.604;2023-07-20T03:22:17;10.77;;;4.13;;
16820;SDS011;8527;49.740;6.604;2023-07-20T03:27:16;10.85;;;4.20;;
16820;SDS011;8527;49.740;6.604;2023-07-20T03:32:18;8.80;;;4.45;;
16820;SDS011;8527;49.740;6.604;2023-07-20T03:37:18;7.53;;;3.80;;
16820;SDS011;8527;49.740;6.604;2023-07-20T03:42:17;13.70;;;4.28;;
16820;SDS011;8527;49.740;6.604;2023-07-20T03:47:19;12.30;;;3.80;;
16820;SDS011;8527;49.740;6.604;2023-07-20T03:52:17;9.82;;;4.10;;
16820;SDS011;8527;49.740;6.604;2023-07-20T03:57:21;7.47;;;4.30;;
16820;SDS011;8527;49.740;6.604;2023-07-20T04:02:28;8.88;;;3.80;;
16820;SDS011;8527;49.740;6.604;2023-07-20T04:07:26;10.45;;;4.13;;
16820;SDS011;8527;49.740;6.604;2023-07-20T04:12:27;7.90;;;3.85;;
16820;SDS011;8527;49.740;6.604;2023-07-20T04:17:34;11.18;;;3.88;;
16820;SDS011;8527;49.740;6.604;2023-07-20T04:22:35;8.90;;;3.60;;
16820;SDS011;8527;49.740;6.604;2023-07-20T04:27:43;7.43;;;3.97;;
16820;SDS011;8527;49.740;6.604;2023-07-20T04:32:49;11.88;;;4.38;;
16820;SDS011;8527;49.740;6.604;2023-07-20T04:37:49;9.80;;;4.05;;
16820;SDS011;8527;49.740;6.604;2023-07-20T04:42:47;7.88;;;4.18;;
16820;SDS011;8527;49.740;6.604;2023-07-20T04:47:46;9.23;;;4.07;;
16820;SDS011;8527;49.740;6.604;2023-07-20T04:52:48;9.43;;;4.10;;
16820;SDS011;8527;49.740;6.604;2023-07-20T04:57:46;14.50;;;4.45;;
16820;SDS011;8527;49.740;6.604;2023-07-20T05:02:44;12.35;;;4.38;;
16820;SDS011;8527;49.740;6.604;2023-07-20T05:07:48;9.85;;;4.00;;
16820;SDS011;8527;49.740;6.604;2023-07-20T05:12:50;14.82;;;4.18;;
16820;SDS011;8527;49.740;6.604;2023-07-20T05:17:56;10.48;;;3.60;;
16820;SDS011;8527;49.740;6.604;2023-07-20T05:22:57;7.60;;;4.03;;
16820;SDS011;8527;49.740;6.604;2023-07-20T05:27:56;13.43;;;4.05;;
16820;SDS011;8527;49.740;6.604;2023-07-20T05:32:59;13.23;;;4.00;;
16820;SDS011;8527;49.740;6.604;2023-07-20T05:38:03;11.88;;;4.20;;
16820;SDS011;8527;49.740;6.604;2023-07-20T05:48:08;11.85;;;4.70;;
16820;SDS011;8527;49.740;6.604;2023-07-20T05:53:10;12.90;;;4.18;;
16820;SDS011;8527;49.740;6.604;2023-07-20T05:58:09;17.13;;;4.70;;
16820;SDS011;8527;49.740;6.604;2023-07-20T06:03:08;11.68;;;4.40;;
16820;SDS011;8527;49.740;6.604;2023-07-20T06:08:06;14.05;;;4.93;;
16820;SDS011;8527;49.740;6.604;2023-07-20T06:13:16;22.23;;;4.80;;
16820;SDS011;8527;49.740;6.604;2023-07-20T06:18:14;13.07;;;4.55;;
16820;SDS011;8527;49.740;6.604;2023-07-20T06:23:16;15.88;;;4.70;;
16820;SDS011;8527;49.740;6.604;2023-07-20T06:28:17;12.48;;;4.10;;
16820;SDS011;8527;49.740;6.604;2023-07-20T06:33:18;14.40;;;4.60;;
16820;SDS011;8527;49.740;6.604;2023-07-20T06:38:16;11.90;;;4.65;;
16820;SDS011;8527;49.740;6.604;2023-07-20T06:43:17;15.10;;;4.57;;
16820;SDS011;8527;49.740;6.604;2023-07-20T06:48:17;13.68;;;5.13;;
16820;SDS011;8527;49.740;6.604;2023-07-20T06:53:23;8.88;;;4.68;;
16820;SDS011;8527;49.740;6.604;2023-07-20T06:58:24;14.82;;;4.97;;
16820;SDS011;8527;49.740;6.604;2023-07-20T07:03:23;16.30;;;5.07;;
16820;SDS011;8527;49.740;6.604;2023-07-20T07:08:22;12.30;;;4.70;;
16820;SDS011;8527;49.740;6.604;2023-07-20T07:13:20;10.52;;;4.07;;
16820;SDS011;8527;49.740;6.604;2023-07-20T07:18:25;11.40;;;4.25;;
16820;SDS011;8527;49.740;6.604;2023-07-20T07:23:23;13.75;;;4.72;;
16820;SDS011;8527;49.740;6.604;2023-07-20T07:28:25;15.50;;;4.60;;
16820;SDS011;8527;49.740;6.604;2023-07-20T07:33:31;12.73;;;4.38;;
16820;SDS011;8527;49.740;6.604;2023-07-20T07:38:30;13.80;;;4.40;;
16820;SDS011;8527;49.740;6.604;2023-07-20T07:43:31;15.43;;;4.55;;
16820;SDS011;8527;49.740;6.604;2023-07-20T07:48:39;15.07;;;4.40;;
16820;SDS011;8527;49.740;6.604;2023-07-20T07:53:43;15.25;;;4.43;;
16820;SDS011;8527;49.740;6.604;2023-07-20T07:58:50;14.65;;;4.53;;
16820;SDS011;8527;49.740;6.604;2023-07-20T08:03:53;13.30;;;4.40;;
16820;SDS011;8527;49.740;6.604;2023-07-20T08:08:53;14.57;;;5.25;;
16820;SDS011;8527;49.740;6.604;2023-07-20T08:13:52;12.30;;;4.53;;
16820;SDS011;8527;49.740;6.604;2023-07-20T08:18:53;14.07;;;4.93;;
16820;SDS011;8527;49.740;6.604;2023-07-20T08:23:51;10.68;;;4.18;;
16820;SDS011;8527;49.740;6.604;2023-07-20T08:28:52;15.80;;;4.40;;
16820;SDS011;8527;49.740;6.604;2023-07-20T08:33:54;12.40;;;4.15;;
16820;SDS011;8527;49.740;6.604;2023-07-20T08:38:54;21.52;;;4.68;;
16820;SDS011;8527;49.740;6.604;2023-07-20T08:49:01;13.65;;;4.20;;
16820;SDS011;8527;49.740;6.604;2023-07-20T08:54:00;13.18;;;3.97;;
16820;SDS011;8527;49.740;6.604;2023-07-20T08:58:58;12.00;;;5.03;;
16820;SDS011;8527;49.740;6.604;2023-07-20T09:04:01;13.95;;;4.25;;
16820;SDS011;8527;49.740;6.604;2023-07-20T09:08:59;20.75;;;4.35;;
16820;SDS011;8527;49.740;6.604;2023-07-20T09:14:04;9.30;;;3.65;;
16820;SDS011;8527;49.740;6.604;2023-07-20T09:19:06;8.35;;;3.80;;
16820;SDS011;8527;49.740;6.604;2023-07-20T09:24:05;9.23;;;3.67;;
16820;SDS011;8527;49.740;6.604;2023-07-20T09:29:05;9.40;;;4.18;;
16820;SDS011;8527;49.740;6.604;2023-07-20T09:34:08;16.42;;;4.65;;
16820;SDS011;8527;49.740;6.604;2023-07-20T09:39:09;10.85;;;4.28;;
16820;SDS011;8527;49.740;6.604;2023-07-20T09:44:08;25.08;;;14.82;;
16820;SDS011;8527;49.740;6.604;2023-07-20T09:49:13;11.18;;;3.65;;
16820;SDS011;8527;49.740;6.604;2023-07-20T09:54:13;14.68;;;4.47;;
16820;SDS011;8527;49.740;6.604;2023-07-20T09:59:11;13.77;;;3.38;;
16820;SDS011;8527;49.740;6.604;2023-07-20T10:04:13;7.03;;;3.28;;
16820;SDS011;8527;49.740;6.604;2023-07-20T10:09:17;7.93;;;3.40;;
16820;SDS011;8527;49.740;6.604;2023-07-20T10:14:23;7.32;;;3.45;;
16820;SDS011;8527;49.740;6.604;2023-07-20T10:19:32;16.63;;;3.63;;
16820;SDS011;8527;49.740;6.604;2023-07-20T10:24:44;9.57;;;3.30;;
16820;SDS011;8527;49.740;6.604;2023-07-20T10:29:44;7.78;;;3.15;;
16820;SDS011;8527;49.740;6.604;2023-07-20T10:34:49;7.45;;;3.30;;
16820;SDS011;8527;49.740;6.604;2023-07-20T10:39:49;7.63;;;3.20;;
16820;SDS011;8527;49.740;6.604;2023-07-20T10:44:47;7.30;;;3.00;;
16820;SDS011;8527;49.740;6.604;2023-07-20T10:50:01;8.50;;;3.30;;
16820;SDS011;8527;49.740;6.604;2023-07-20T10:55:09;6.03;;;2.75;;
16820;SDS011;8527;49.740;6.604;2023-07-20T11:00:10;6.65;;;3.15;;
16820;SDS011;8527;49.740;6.604;2023-07-20T11:10:43;7.32;;;3.25;;
16820;SDS011;8527;49.740;6.604;2023-07-20T11:15:44;5.32;;;3.10;;
16820;SDS011;8527;49.740;6.604;2023-07-20T11:20:51;5.22;;;2.95;;
16820;SDS011;8527;49.740;6.604;2023-07-20T11:25:57;5.78;;;2.92;;
16820;SDS011;8527;49.740;6.604;2023-07-20T11:30:57;10.82;;;3.35;;
16820;SDS011;8527;49.740;6.604;2023-07-20T11:36:00;5.95;;;2.88;;
16820;SDS011;8527;49.740;6.604;2023-07-20T11:41:05;9.45;;;3.10;;
16820;SDS011;8527;49.740;6.604;2023-07-20T11:46:06;5.05;;;3.10;;
16820;SDS011;8527;49.740;6.604;2023-07-20T11:51:05;7.88;;;3.17;;
16820;SDS011;8527;49.740;6.604;2023-07-20T11:56:06;9.40;;;3.08;;
16820;SDS011;8527;49.740;6.604;2023-07-20T12:01:04;9.93;;;3.20;;
16820;SDS011;8527;49.740;6.604;2023-07-20T12:11:08;7.90;;;3.17;;
16820;SDS011;8527;49.740;6.604;2023-07-20T12:16:12;7.68;;;2.70;;
16820;SDS011;8527;49.740;6.604;2023-07-20T12:21:14;6.13;;;2.75;;
16820;SDS011;8527;49.740;6.604;2023-07-20T12:26:15;4.38;;;2.53;;
16820;SDS011;8527;49.740;6.604;2023-07-20T12:31:13;3.03;;;2.20;;
16820;SDS011;8527;49.740;6.604;2023-07-20T12:36:20;6.10;;;2.75;;
16820;SDS011;8527;49.740;6.604;2023-07-20T12:41:24;7.10;;;2.42;;
16820;SDS011;8527;49.740;6.604;2023-07-20T12:46:23;3.50;;;2.38;;
16820;SDS011;8527;49.740;6.604;2023-07-20T12:51:24;4.15;;;2.13;;
16820;SDS011;8527;49.740;6.604;2023-07-20T12:56:25;5.50;;;2.40;;
16820;SDS011;8527;49.740;6.604;2023-07-20T13:01:28;3.28;;;2.33;;
16820;SDS011;8527;49.740;6.604;2023-07-20T13:06:30;4.95;;;1.88;;
16820;SDS011;8527;49.740;6.604;2023-07-20T13:11:32;3.42;;;2.00;;
16820;SDS011;8527;49.740;6.604;2023-07-20T13:16:30;4.22;;;1.77;;
16820;SDS011;8527;49.740;6.604;2023-07-20T13:21:37;3.30;;;1.67;;
16820;SDS011;8527;49.740;6.604;2023-07-20T13:26:41;3.65;;;2.20;;
16820;SDS011;8527;49.740;6.604;2023-07-20T13:31:39;2.90;;;1.80;;
16820;SDS011;8527;49.740;6.604;2023-07-20T13:36:39;4.45;;;2.03;;
16820;SDS011;8527;49.740;6.604;2023-07-20T13:41:40;4.13;;;2.30;;
16820;SDS011;8527;49.740;6.604;2023-07-20T13:46:42;4.50;;;2.20;;
16820;SDS011;8527;49.740;6.604;2023-07-20T13:51:43;2.95;;;2.10;;
16820;SDS011;8527;49.740;6.604;2023-07-20T13:56:51;3.97;;;2.17;;
16820;SDS011;8527;49.740;6.604;2023-07-20T14:01:51;3.03;;;1.90;;
16820;SDS011;8527;49.740;6.604;2023-07-20T14:06:50;2.42;;;2.13;;
16820;SDS011;8527;49.740;6.604;2023-07-20T14:11:57;3.75;;;2.00;;
16820;SDS011;8527;49.740;6.604;2023-07-20T14:16:56;5.00;;;2.33;;
16820;SDS011;8527;49.740;6.604;2023-07-20T14:21:54;3.45;;;2.60;;
16820;SDS011;8527;49.740;6.604;2023-07-20T14:27:03;5.45;;;2.80;;
16820;SDS011;8527;49.740;6.604;2023-07-20T14:32:04;3.58;;;2.25;;
16820;SDS011;8527;49.740;6.604;2023-07-20T14:37:04;3.35;;;2.28;;
16820;SDS011;8527;49.740;6.604;2023-07-20T14:42:08;3.35;;;2.28;;
16820;SDS011;8527;49.740;6.604;2023-07-20T14:47:24;6.13;;;2.20;;
16820;SDS011;8527;49.740;6.604;2023-07-20T14:52:26;3.42;;;2.10;;
16820;SDS011;8527;49.740;6.604;2023-07-20T15:02:32;4.20;;;2.13;;
16820;SDS011;8527;49.740;6.604;2023-07-20T15:07:30;8.38;;;2.28;;
16820;SDS011;8527;49.740;6.604;2023-07-20T15:12:30;7.60;;;2.33;;
16820;SDS011;8527;49.740;6.604;2023-07-20T15:17:32;5.78;;;2.60;;
16820;SDS011;8527;49.740;6.604;2023-07-20T15:22:31;3.83;;;2.13;;
16820;SDS011;8527;49.740;6.604;2023-07-20T15:27:30;3.65;;;2.33;;
16820;SDS011;8527;49.740;6.604;2023-07-20T15:32:29;4.22;;;2.10;;
16820;SDS011;8527;49.740;6.604;2023-07-20T15:37:30;3.88;;;2.30;;
16820;SDS011;8527;49.740;6.604;2023-07-20T15:42:31;4.82;;;2.50;;
16820;SDS011;8527;49.740;6.604;2023-07-20T15:47:32;5.28;;;2.28;;
16820;SDS011;8527;49.740;6.604;2023-07-20T15:52:30;3.25;;;2.17;;
16820;SDS011;8527;49.740;6.604;2023-07-20T15:57:29;7.28;;;2.30;;
16820;SDS011;8527;49.740;6.604;2023-07-20T16:02:28;2.85;;;2.20;;
16820;SDS011;8527;49.740;6.604;2023-07-20T16:07:29;4.45;;;2.72;;
16820;SDS011;8527;49.740;6.604;2023-07-20T16:12:28;4.55;;;3.40;;
16820;SDS011;8527;49.740;6.604;2023-07-20T16:17:29;6.47;;;3.10;;
16820;SDS011;8527;49.740;6.604;2023-07-20T16:22:33;5.88;;;2.70;;
16820;SDS011;8527;49.740;6.604;2023-07-20T16:27:38;5.95;;;2.47;;
16820;SDS011;8527;49.740;6.604;2023-07-20T16:32:40;3.50;;;2.55;;
16820;SDS011;8527;49.740;6.604;2023-07-20T16:37:49;6.10;;;2.70;;
16820;SDS011;8527;49.740;6.604;2023-07-20T16:42:47;4.03;;;2.25;;
16820;SDS011;8527;49.740;6.604;2023-07-20T16:47:46;4.20;;;2.40;;
16820;SDS011;8527;49.740;6.604;2023-07-20T16:52:51;4.50;;;2.33;;
16820;SDS011;8527;49.740;6.604;2023-07-20T16:57:52;4.07;;;2.60;;
16820;SDS011;8527;49.740;6.604;2023-07-20T17:02:52;5.60;;;2.78;;
16820;SDS011;8527;49.740;6.604;2023-07-20T17:07:56;3.50;;;2.17;;
16820;SDS011;8527;49.740;6.604;2023-07-20T17:12:55;4.00;;;2.47;;
16820;SDS011;8527;49.740;6.604;2023-07-20T17:17:56;5.65;;;2.40;;
16820;SDS011;8527;49.740;6.604;2023-07-20T17:23:00;5.90;;;2.60;;
16820;SDS011;8527;49.740;6.604;2023-07-20T17:27:59;7.20;;;2.88;;
16820;SDS011;8527;49.740;6.604;2023-07-20T17:32:57;3.72;;;2.50;;
16820;SDS011;8527;49.740;6.604;2023-07-20T17:37:59;4.07;;;2.40;;
16820;SDS011;8527;49.740;6.604;2023-07-20T17:42:58;5.43;;;2.75;;
16820;SDS011;8527;49.740;6.604;2023-07-20T17:47:56;4.35;;;2.63;;
16820;SDS011;8527;49.740;6.604;2023-07-20T17:53:00;11.88;;;3.17;;
16820;SDS011;8527;49.740;6.604;2023-07-20T17:57:59;6.82;;;2.92;;
16820;SDS011;8527;49.740;6.604;2023-07-20T18:03:00;7.03;;;2.70;;
16820;SDS011;8527;49.740;6.604;2023-07-20T18:08:04;6.43;;;2.63;;
16820;SDS011;8527;49.740;6.604;2023-07-20T18:13:03;5.55;;;2.88;;
16820;SDS011;8527;49.740;6.604;2023-07-20T18:18:02;6.22;;;2.63;;
16820;SDS011;8527;49.740;6.604;2023-07-20T18:23:00;4.20;;;2.40;;
16820;SDS011;8527;49.740;6.604;2023-07-20T18:28:02;6.00;;;2.70;;
16820;SDS011;8527;49.740;6.604;2023-07-20T18:33:02;6.57;;;2.70;;
16820;SDS011;8527;49.740;6.604;2023-07-20T18:38:01;3.72;;;2.47;;
16820;SDS011;8527;49.740;6.604;2023-07-20T18:42:59;2.85;;;2.40;;
16820;SDS011;8527;49.740;6.604;2023-07-20T18:48:00;4.78;;;2.45;;
16820;SDS011;8527;49.740;6.604;2023-07-20T18:53:01;5.05;;;2.50;;
16820;SDS011;8527;49.740;6.604;2023-07-20T18:57:59;6.90;;;2.60;;
16820;SDS011;8527;49.740;6.604;2023-07-20T19:03:00;8.43;;;2.58;;
16820;SDS011;8527;49.740;6.604;2023-07-20T19:07:59;3.95;;;2.30;;
16820;SDS011;8527;49.740;6.604;2023-07-20T19:13:01;5.20;;;2.50;;
16820;SDS011;8527;49.740;6.604;2023-07-20T19:18:02;7.82;;;2.70;;
16820;SDS011;8527;49.740;6.604;2023-07-20T19:23:00;5.10;;;2.70;;
16820;SDS011;8527;49.740;6.604;2023-07-20T19:27:59;4.53;;;2.75;;
16820;SDS011;8527;49.740;6.604;2023-07-20T19:32:57;5.43;;;2.55;;
16820;SDS011;8527;49.740;6.604;2023-07-20T19:37:58;3.88;;;2.70;;
16820;SDS011;8527;49.740;6.604;2023-07-20T19:42:59;11.50;;;2.78;;
16820;SDS011;8527;49.740;6.604;2023-07-20T19:47:59;10.98;;;3.13;;
16820;SDS011;8527;49.740;6.604;2023-07-20T19:53:01;7.80;;;2.60;;
16820;SDS011;8527;49.740;6.604;2023-07-20T19:58:03;7.30;;;2.67;;
16820;SDS011;8527;49.740;6.604;2023-07-20T20:03:02;5.43;;;2.50;;
16820;SDS011;8527;49.740;6.604;2023-07-20T20:08:03;5.68;;;2.97;;
16820;SDS011;8527;49.740;6.604;2023-07-20T20:13:03;5.47;;;2.80;;
16820;SDS011;8527;49.740;6.604;2023-07-20T20:18:02;5.38;;;2.80;;
16820;SDS011;8527;49.740;6.604;2023-07-20T20:23:14;5.45;;;2.85;;
16820;SDS011;8527;49.740;6.604;2023-07-20T20:28:15;5.70;;;2.97;;
16820;SDS011;8527;49.740;6.604;2023-07-20T20:33:14;8.35;;;2.90;;
16820;SDS011;8527;49.740;6.604;2023-07-20T20:38:18;6.13;;;2.70;;
16820;SDS011;8527;49.740;6.604;2023-07-20T20:43:16;5.18;;;2.50;;
16820;SDS011;8527;49.740;6.604;2023-07-20T20:48:20;5.78;;;2.83;;
16820;SDS011;8527;49.740;6.604;2023-07-20T20:53:24;5.80;;;2.83;;
16820;SDS011;8527;49.740;6.604;2023-07-20T20:58:22;6.68;;;3.00;;
16820;SDS011;8527;49.740;6.604;2023-07-20T21:03:21;9.68;;;2.80;;
16820;SDS011;8527;49.740;6.604;2023-07-20T21:08:19;8.00;;;2.30;;
16820;SDS011;8527;49.740;6.604;2023-07-20T21:13:24;6.57;;;2.80;;
16820;SDS011;8527;49.740;6.604;2023-07-20T21:18:25;5.35;;;2.47;;
16820;SDS011;8527;49.740;6.604;2023-07-20T21:23:23;3.75;;;2.45;;
16820;SDS011;8527;49.740;6.604;2023-07-20T21:28:35;5.60;;;2.63;;
16820;SDS011;8527;49.740;6.604;2023-07-20T21:33:34;9.82;;;2.67;;
16820;SDS011;8527;49.740;6.604;2023-07-20T21:38:32;8.25;;;2.75;;
16820;SDS011;8527;49.740;6.604;2023-07-20T21:43:35;4.97;;;2.75;;
16820;SDS011;8527;49.740;6.604;2023-07-20T21:48:33;4.70;;;2.60;;
16820;SDS011;8527;49.740;6.604;2023-07-20T21:53:32;6.72;;;2.53;;
16820;SDS011;8527;49.740;6.604;2023-07-20T21:58:31;3.72;;;2.47;;
16820;SDS011;8527;49.740;6.604;2023-07-20T22:03:43;5.55;;;2.45;;
16820;SDS011;8527;49.740;6.604;2023-07-20T22:08:44;6.03;;;2.67;;
16820;SDS011;8527;49.740;6.604;2023-07-20T22:13:46;6.15;;;2.58;;
16820;SDS011;8527;49.740;6.604;2023-07-20T22:18:45;6.70;;;2.80;;
16820;SDS011;8527;49.740;6.604;2023-07-20T22:23:49;6.93;;;2.63;;
16820;SDS011;8527;49.740;6.604;2023-07-20T22:28:50;6.95;;;3.30;;
16820;SDS011;8527;49.740;6.604;2023-07-20T22:33:49;8.73;;;2.97;;
16820;SDS011;8527;49.740;6.604;2023-07-20T22:38:50;4.13;;;2.75;;
16820;SDS011;8527;49.740;6.604;2023-07-20T22:43:51;7.55;;;3.17;;
16820;SDS011;8527;49.740;6.604;2023-07-20T22:48:52;10.35;;;3.10;;
16820;SDS011;8527;49.740;6.604;2023-07-20T22:53:51;4.13;;;2.72;;
16820;SDS011;8527;49.740;6.604;2023-07-20T22:58:57;7.20;;;3.40;;
16820;SDS011;8527;49.740;6.604;2023-07-20T23:03:56;4.30;;;2.90;;
16820;SDS011;8527;49.740;6.604;2023-07-20T23:08:54;5.00;;;3.15;;
16820;SDS011;8527;49.740;6.604;2023-07-20T23:13:58;6.50;;;3.38;;
16820;SDS011;8527;49.740;6.604;2023-07-20T23:18:57;7.20;;;4.10;;
16820;SDS011;8527;49.740;6.604;2023-07-20T23:23:56;9.40;;;5.03;;
16820;SDS011;8527;49.740;6.604;2023-07-20T23:28:58;12.30;;;5.95;;
16820;SDS011;8527;49.740;6.604;2023-07-20T23:34:00;10.63;;;4.40;;
16820;SDS011;8527;49.740;6.604;2023-07-20T23:38:59;7.40;;;3.47;;
16820;SDS011;8527;49.740;6.604;2023-07-20T23:44:09;5.90;;;3.20;;
16820;SDS011;8527;49.740;6.604;2023-07-20T23:49:10;13.43;;;3.50;;
16820;SDS011;8527;49.740;6.604;2023-07-20T23:54:15;6.15;;;3.55;;
16820;SDS011;8527;49.740;6.604;2023-07-20T23:59:20;7.22;;;3.90;;
